createdAt,value
2023-03-21T00:00:56.332Z,57.80
2023-03-21T00:03:26.201Z,52.60
2023-03-21T00:05:54.711Z,58.80
2023-03-21T00:08:26.289Z,62.10
2023-03-21T00:10:57.726Z,60.40
2023-03-21T00:13:26.917Z,60.50
2023-03-21T00:16:05.087Z,58.60
2023-03-21T00:18:42.552Z,46.80
2023-03-21T00:21:44.015Z,53.10
2023-03-21T00:24:04.630Z,57.70
2023-03-21T00:26:34.713Z,58.10
2023-03-21T00:29:04.010Z,61.10
2023-03-21T00:31:36.197Z,59.10
2023-03-21T00:34:06.081Z,57.40
2023-03-21T00:36:34.668Z,51.20
2023-03-21T00:39:06.452Z,54.30
2023-03-21T00:41:42.633Z,60.50
2023-03-21T00:44:14.025Z,56.20
2023-03-21T00:46:49.352Z,60.40
2023-03-21T00:49:22.661Z,62.10
2023-03-21T00:51:51.440Z,55.30
2023-03-21T00:54:20.921Z,55.80
2023-03-21T00:56:49.223Z,60.40
2023-03-21T00:59:17.961Z,60.10
2023-03-21T01:01:54.180Z,62.90
2023-03-21T01:04:26.940Z,63.30
2023-03-21T01:06:55.353Z,65.10
2023-03-21T01:09:24.481Z,61.10
2023-03-21T01:11:53.417Z,54.10
2023-03-21T01:14:23.688Z,67.50
2023-03-21T01:16:53.169Z,65.30
2023-03-21T01:19:37.947Z,66.60
2023-03-21T01:22:12.615Z,71.90
2023-03-21T01:24:52.468Z,66.60
2023-03-21T01:27:23.708Z,69.20
2023-03-21T01:29:53.039Z,65.90
2023-03-21T01:32:21.897Z,70.90
2023-03-21T01:34:50.413Z,65.90
2023-03-21T01:37:20.116Z,63.50
2023-03-21T01:39:50.448Z,64.40
2023-03-21T01:42:18.595Z,67.20
2023-03-21T01:44:58.540Z,61.30
2023-03-21T01:47:35.681Z,65.00
2023-03-21T01:50:08.295Z,62.20
2023-03-21T01:52:55.208Z,68.10
2023-03-21T01:55:32.397Z,72.00
2023-03-21T01:58:22.287Z,61.40
2023-03-21T02:01:06.501Z,64.60
2023-03-21T02:03:50.685Z,60.10
2023-03-21T02:06:51.873Z,60.90
2023-03-21T02:09:33.699Z,69.30
2023-03-21T02:12:07.375Z,61.50
2023-03-21T02:14:37.825Z,65.40
2023-03-21T02:17:20.746Z,61.00
2023-03-21T02:20:36.354Z,60.60
2023-03-21T02:23:16.988Z,63.70
2023-03-21T02:26:08.732Z,64.00
2023-03-21T02:28:58.207Z,65.90
2023-03-21T02:31:32.641Z,66.30
2023-03-21T02:34:16.319Z,60.20
2023-03-21T02:37:07.786Z,63.00
2023-03-21T02:39:45.322Z,66.80
2023-03-21T02:42:32.174Z,63.40
2023-03-21T02:45:08.316Z,61.60
2023-03-21T02:47:42.966Z,63.50
2023-03-21T02:50:46.311Z,65.10
2023-03-21T02:53:18.367Z,67.20
2023-03-21T02:55:47.607Z,69.40
2023-03-21T02:58:18.389Z,63.00
2023-03-21T03:00:50.502Z,65.10
2023-03-21T03:03:34.598Z,61.30
2023-03-21T03:06:28.891Z,65.30
2023-03-21T03:09:04.333Z,66.30
2023-03-21T03:11:35.881Z,66.80
2023-03-21T03:14:38.460Z,64.00
2023-03-21T03:17:08.208Z,65.50
2023-03-21T03:19:55.075Z,62.00
2023-03-21T03:22:25.622Z,69.60
2023-03-21T03:25:19.828Z,71.30
2023-03-21T03:27:53.345Z,65.20
2023-03-21T03:30:23.803Z,71.40
2023-03-21T03:32:56.498Z,68.60
2023-03-21T03:35:24.942Z,70.80
2023-03-21T03:37:57.723Z,70.50
2023-03-21T03:40:31.376Z,78.50
2023-03-21T03:43:10.828Z,75.20
2023-03-21T03:46:13.895Z,70.80
2023-03-21T03:48:49.128Z,73.40
2023-03-21T03:51:38.300Z,70.40
2023-03-21T03:56:42.794Z,69.20
2023-03-21T03:59:10.898Z,71.60
2023-03-21T04:02:01.865Z,67.30
2023-03-21T04:04:31.885Z,67.60
2023-03-21T04:07:03.530Z,68.70
2023-03-21T04:09:43.521Z,70.30
2023-03-21T04:12:15.551Z,64.70
2023-03-21T04:14:56.985Z,63.90
2023-03-21T04:17:35.022Z,64.20
2023-03-21T04:20:12.070Z,61.10
2023-03-21T04:22:43.194Z,60.80
2023-03-21T04:25:18.961Z,65.50
2023-03-21T04:27:56.250Z,66.00
2023-03-21T04:31:02.508Z,63.30
2023-03-21T04:33:41.939Z,62.40
2023-03-21T04:36:26.049Z,62.00
2023-03-21T04:39:01.102Z,65.70
2023-03-21T04:41:29.252Z,63.80
2023-03-21T04:44:03.593Z,65.40
2023-03-21T04:46:33.249Z,59.40
2023-03-21T04:49:01.842Z,57.60
2023-03-21T04:51:30.431Z,62.70
2023-03-21T04:53:58.847Z,61.50
2023-03-21T04:56:32.654Z,66.10
2023-03-21T04:59:08.999Z,56.30
2023-03-21T05:01:37.164Z,58.50
2023-03-21T05:04:05.754Z,60.80
2023-03-21T05:06:35.975Z,58.30
2023-03-21T05:09:05.662Z,59.00
2023-03-21T05:11:38.607Z,62.80
2023-03-21T05:14:08.088Z,65.40
2023-03-21T05:16:36.519Z,62.80
2023-03-21T05:19:05.221Z,59.10
2023-03-21T05:21:43.607Z,61.60
2023-03-21T05:24:20.609Z,61.20
2023-03-21T05:26:52.607Z,64.20
2023-03-21T05:29:24.369Z,58.00
2023-03-21T05:32:00.248Z,60.40
2023-03-21T05:34:28.610Z,60.40
2023-03-21T05:36:56.739Z,62.20
2023-03-21T05:39:27.476Z,60.10
2023-03-21T05:42:01.794Z,63.10
2023-03-21T05:44:30.938Z,71.20
2023-03-21T05:47:00.672Z,58.80
2023-03-21T05:49:38.074Z,59.70
2023-03-21T05:52:06.807Z,59.70
2023-03-21T05:54:38.674Z,65.30
2023-03-21T05:57:07.069Z,64.50
2023-03-21T06:00:05.189Z,66.70
2023-03-21T06:02:44.630Z,64.60
2023-03-21T06:05:31.949Z,67.60
2023-03-21T06:08:01.009Z,62.30
2023-03-21T06:10:33.569Z,69.00
2023-03-21T06:13:03.680Z,64.90
2023-03-21T06:15:36.810Z,65.50
2023-03-21T06:18:10.469Z,60.40
2023-03-21T06:20:39.789Z,62.10
2023-03-21T06:23:12.497Z,56.10
2023-03-21T06:25:41.270Z,60.60
2023-03-21T06:28:09.812Z,63.10
2023-03-21T06:30:47.101Z,61.70
2023-03-21T06:33:20.956Z,63.10
2023-03-21T06:35:56.504Z,61.70
2023-03-21T06:38:25.661Z,60.70
2023-03-21T06:40:54.612Z,62.10
2023-03-21T06:43:23.943Z,63.90
2023-03-21T06:45:52.159Z,68.50
2023-03-21T06:48:20.350Z,65.80
2023-03-21T06:50:54.851Z,70.20
2023-03-21T06:53:27.483Z,70.00
2023-03-21T06:56:18.573Z,66.20
2023-03-21T06:58:48.099Z,66.80
2023-03-21T07:01:37.382Z,78.00
2023-03-21T07:04:07.616Z,71.20
2023-03-21T07:06:37.322Z,69.90
2023-03-21T07:09:13.409Z,72.50
2023-03-21T07:11:42.724Z,71.30
2023-03-21T07:14:11.638Z,66.70
2023-03-21T07:19:16.012Z,77.50
2023-03-21T07:21:44.282Z,69.20
2023-03-21T07:24:16.156Z,71.20
2023-03-21T07:26:44.466Z,68.70
2023-03-21T07:29:13.689Z,65.30
2023-03-21T07:31:47.441Z,65.50
2023-03-21T07:34:17.064Z,66.70
2023-03-21T07:36:45.362Z,66.80
2023-03-21T07:39:17.809Z,69.10
2023-03-21T07:41:46.258Z,65.00
2023-03-21T07:44:25.318Z,68.90
2023-03-21T07:47:01.726Z,65.20
2023-03-21T07:49:30.193Z,65.70
2023-03-21T07:52:00.141Z,65.20
2023-03-21T07:54:29.359Z,64.40
2023-03-21T07:56:57.413Z,59.80
2023-03-21T07:59:26.440Z,58.60
2023-03-21T08:01:54.764Z,62.50
2023-03-21T08:04:22.853Z,56.90
2023-03-21T08:06:51.869Z,60.50
2023-03-21T08:09:20.194Z,58.20
2023-03-21T08:11:54.357Z,55.20
2023-03-21T08:14:22.626Z,60.60
2023-03-21T08:16:51.013Z,62.10
2023-03-21T08:19:23.198Z,58.20
2023-03-21T08:21:53.768Z,54.70
2023-03-21T08:24:22.121Z,53.00
2023-03-21T08:26:53.669Z,57.40
2023-03-21T08:29:25.238Z,52.50
2023-03-21T08:31:53.402Z,47.40
2023-03-21T08:34:23.988Z,48.70
2023-03-21T08:36:51.980Z,51.10
2023-03-21T08:39:21.942Z,56.10
2023-03-21T08:41:50.082Z,51.20
2023-03-21T08:44:18.127Z,48.40
2023-03-21T08:46:46.177Z,48.60
2023-03-21T08:49:14.253Z,51.70
2023-03-21T08:51:45.792Z,57.20
2023-03-21T08:54:31.722Z,43.70
2023-03-21T08:57:00.468Z,48.50
2023-03-21T08:59:28.554Z,44.60
2023-03-21T09:01:56.769Z,41.90
2023-03-21T09:04:26.420Z,46.80
2023-03-21T09:06:56.481Z,49.50
2023-03-21T09:09:24.785Z,47.30
2023-03-21T09:11:52.802Z,51.50
2023-03-21T09:14:23.875Z,48.20
2023-03-21T09:16:57.991Z,45.90
2023-03-21T09:19:26.350Z,43.20
2023-03-21T09:21:57.942Z,41.60
2023-03-21T09:24:26.608Z,37.10
2023-03-21T09:26:56.633Z,40.70
2023-03-21T09:29:25.044Z,43.70
2023-03-21T09:31:53.966Z,38.50
2023-03-21T09:34:22.673Z,44.90
2023-03-21T09:36:52.020Z,43.70
2023-03-21T09:39:26.606Z,42.20
2023-03-21T09:42:17.978Z,43.70
2023-03-21T09:44:59.269Z,39.50
2023-03-21T09:47:37.808Z,36.80
2023-03-21T09:50:17.662Z,40.50
2023-03-21T09:52:58.870Z,39.80
2023-03-21T09:55:35.488Z,38.10
2023-03-21T09:58:21.678Z,37.10
2023-03-21T10:00:55.811Z,35.50
2023-03-21T10:03:35.213Z,36.20
2023-03-21T10:06:12.371Z,31.40
2023-03-21T10:08:41.516Z,29.70
2023-03-21T10:11:24.672Z,33.00
2023-03-21T10:13:55.802Z,31.90
2023-03-21T10:17:33.564Z,32.70
2023-03-21T10:20:12.257Z,29.20
2023-03-21T10:22:46.190Z,30.30
2023-03-21T10:25:47.338Z,29.30
2023-03-21T10:28:21.576Z,33.10
2023-03-21T10:30:57.015Z,30.80
2023-03-21T10:33:27.466Z,31.50
2023-03-21T10:35:59.031Z,29.90
2023-03-21T10:38:27.417Z,29.20
2023-03-21T10:40:56.510Z,30.10
2023-03-21T10:43:27.609Z,29.50
2023-03-21T10:45:58.422Z,31.70
2023-03-21T10:48:26.767Z,31.50
2023-03-21T10:50:55.064Z,28.50
2023-03-21T10:53:27.980Z,29.90
2023-03-21T10:56:02.073Z,28.50
2023-03-21T10:58:39.211Z,29.60
2023-03-21T11:01:10.832Z,29.50
2023-03-21T11:03:44.569Z,30.00
2023-03-21T11:06:36.814Z,29.50
2023-03-21T11:09:08.554Z,30.60
2023-03-21T11:11:52.533Z,31.40
2023-03-21T11:14:34.388Z,31.80
2023-03-21T11:17:02.703Z,29.00
2023-03-21T11:19:32.943Z,32.10
2023-03-21T11:22:11.132Z,34.20
2023-03-21T11:24:39.134Z,35.70
2023-03-21T11:27:07.843Z,32.50
2023-03-21T11:29:39.049Z,34.80
2023-03-21T11:32:36.173Z,33.00
2023-03-21T11:35:21.939Z,32.80
2023-03-21T11:37:57.907Z,31.90
2023-03-21T11:40:27.415Z,33.50
2023-03-21T11:42:59.239Z,35.10
2023-03-21T11:45:31.121Z,28.90
2023-03-21T11:48:01.090Z,27.40
2023-03-21T11:50:34.067Z,26.10
2023-03-21T11:53:29.974Z,26.30
2023-03-21T11:56:16.730Z,29.20
2023-03-21T11:59:07.095Z,28.00
2023-03-21T12:01:37.269Z,28.10
2023-03-21T12:04:27.336Z,27.00
2023-03-21T12:07:33.414Z,30.40
2023-03-21T12:10:11.393Z,28.60
2023-03-21T12:13:01.372Z,29.70
2023-03-21T12:15:35.401Z,28.10
2023-03-21T12:18:06.513Z,26.10
2023-03-21T12:20:37.857Z,26.90
2023-03-21T12:23:38.278Z,26.20
2023-03-21T12:26:21.100Z,26.30
2023-03-21T12:29:12.454Z,25.00
2023-03-21T12:32:18.186Z,26.30
2023-03-21T12:35:16.778Z,24.90
2023-03-21T12:38:10.475Z,24.90
2023-03-21T12:40:49.709Z,25.10
2023-03-21T12:43:41.231Z,27.70
2023-03-21T12:46:24.465Z,28.10
2023-03-21T12:51:37.423Z,29.50
2023-03-21T12:54:08.742Z,28.10
2023-03-21T12:56:39.979Z,30.10
2023-03-21T12:59:26.384Z,28.50
2023-03-21T13:01:56.760Z,29.10
2023-03-21T13:04:41.109Z,27.50
2023-03-21T13:07:11.758Z,28.70
2023-03-21T13:09:41.005Z,28.50
2023-03-21T13:12:43.589Z,27.00
2023-03-21T13:15:27.843Z,25.60
2023-03-21T13:17:58.980Z,29.00
2023-03-21T13:20:49.610Z,27.20
2023-03-21T13:23:22.258Z,29.20
2023-03-21T13:25:52.397Z,27.50
2023-03-21T13:28:34.678Z,26.00
2023-03-21T13:31:26.254Z,27.70
2023-03-21T13:33:55.875Z,29.00
2023-03-21T13:36:26.932Z,32.10
2023-03-21T13:39:00.993Z,31.60
2023-03-21T13:41:37.276Z,32.30
2023-03-21T13:44:09.020Z,29.90
2023-03-21T13:46:53.561Z,26.10
2023-03-21T13:49:29.164Z,28.80
2023-03-21T13:51:58.648Z,27.30
2023-03-21T13:54:34.479Z,29.80
2023-03-21T13:57:14.513Z,29.30
2023-03-21T13:59:49.107Z,29.50
2023-03-21T14:02:29.384Z,29.20
2023-03-21T14:05:06.853Z,29.40
2023-03-21T14:07:42.696Z,33.20
2023-03-21T14:10:30.840Z,35.40
2023-03-21T14:12:59.056Z,29.60
2023-03-21T14:15:56.355Z,32.00
2023-03-21T14:18:41.136Z,29.20
2023-03-21T14:21:25.721Z,29.70
2023-03-21T14:23:58.125Z,28.80
2023-03-21T14:26:32.519Z,31.40
2023-03-21T14:29:05.257Z,31.30
2023-03-21T14:31:34.593Z,31.20
2023-03-21T14:34:02.867Z,30.60
2023-03-21T14:36:32.951Z,32.30
2023-03-21T14:39:12.281Z,28.70
2023-03-21T14:41:49.650Z,26.20
2023-03-21T14:44:30.275Z,29.20
2023-03-21T14:47:03.857Z,28.40
2023-03-21T14:49:36.511Z,35.90
2023-03-21T14:52:07.304Z,32.50
2023-03-21T14:54:36.604Z,30.60
2023-03-21T14:57:07.970Z,32.00
2023-03-21T14:59:38.961Z,29.60
2023-03-21T15:02:17.465Z,38.30
2023-03-21T15:04:47.285Z,33.50
2023-03-21T15:07:32.375Z,33.80
2023-03-21T15:10:04.899Z,38.20
2023-03-21T15:12:34.536Z,32.90
2023-03-21T15:15:06.005Z,33.50
2023-03-21T15:17:34.157Z,37.80
2023-03-21T15:20:10.326Z,39.00
2023-03-21T15:22:40.908Z,36.30
2023-03-21T15:25:13.393Z,36.40
2023-03-21T15:27:43.240Z,35.60
2023-03-21T15:30:28.155Z,38.00
2023-03-21T15:32:57.389Z,34.60
2023-03-21T15:35:30.790Z,36.90
2023-03-21T15:37:59.495Z,34.90
2023-03-21T15:40:30.313Z,41.00
2023-03-21T15:43:18.891Z,33.70
2023-03-21T15:45:51.494Z,36.10
2023-03-21T15:48:27.843Z,31.80
2023-03-21T15:51:06.217Z,34.40
2023-03-21T15:53:37.223Z,36.50
2023-03-21T15:56:06.203Z,27.90
2023-03-21T15:58:41.476Z,31.30
2023-03-21T16:01:20.121Z,35.20
2023-03-21T16:04:02.701Z,31.40
2023-03-21T16:06:33.717Z,37.40
2023-03-21T16:09:14.340Z,35.30
2023-03-21T16:11:48.591Z,38.90
2023-03-21T16:14:18.734Z,35.10
2023-03-21T16:16:46.786Z,35.60
2023-03-21T16:19:16.636Z,38.10
2023-03-21T16:21:44.933Z,32.30
2023-03-21T16:24:13.647Z,35.80
2023-03-21T16:26:46.271Z,35.60
2023-03-21T16:29:15.015Z,41.80
2023-03-21T16:31:43.189Z,37.20
2023-03-21T16:34:12.819Z,38.30
2023-03-21T16:36:44.326Z,40.90
2023-03-21T16:39:24.854Z,34.80
2023-03-21T16:41:53.280Z,43.50
2023-03-21T16:44:21.656Z,36.30
2023-03-21T16:46:50.133Z,41.00
2023-03-21T16:49:28.054Z,35.90
2023-03-21T16:51:59.712Z,37.90
2023-03-21T16:54:31.941Z,36.40
2023-03-21T16:57:01.429Z,38.60
2023-03-21T16:59:29.520Z,38.50
2023-03-21T17:01:58.038Z,35.30
2023-03-21T17:04:26.183Z,37.90
2023-03-21T17:06:54.582Z,35.20
2023-03-21T17:09:24.522Z,35.90
2023-03-21T17:11:52.901Z,37.00
2023-03-21T17:14:25.812Z,37.60
2023-03-21T17:16:55.391Z,37.90
2023-03-21T17:19:26.443Z,38.50
2023-03-21T17:21:55.462Z,38.00
2023-03-21T17:24:23.940Z,37.10
2023-03-21T17:26:52.734Z,44.20
2023-03-21T17:29:23.451Z,42.10
2023-03-21T17:31:51.935Z,38.20
2023-03-21T17:34:20.623Z,39.50
2023-03-21T17:36:57.290Z,37.40
2023-03-21T17:39:26.821Z,40.30
2023-03-21T17:41:56.179Z,39.20
2023-03-21T17:44:24.273Z,39.70
2023-03-21T17:46:52.653Z,41.40
2023-03-21T17:49:21.935Z,34.80
2023-03-21T17:51:50.559Z,38.60
2023-03-21T17:54:18.914Z,33.50
2023-03-21T17:56:47.579Z,34.40
2023-03-21T17:59:17.206Z,33.70
2023-03-21T18:01:47.692Z,35.40
2023-03-21T18:04:17.278Z,34.50
2023-03-21T18:06:45.708Z,34.00
2023-03-21T18:09:20.229Z,34.10
2023-03-21T18:14:27.095Z,29.20
2023-03-21T18:16:58.160Z,31.20
2023-03-21T18:19:27.392Z,34.70
2023-03-21T18:21:56.177Z,35.30
2023-03-21T18:24:24.437Z,39.10
2023-03-21T18:26:52.543Z,34.00
2023-03-21T18:32:09.754Z,36.30
2023-03-21T18:34:40.156Z,35.50
2023-03-21T18:37:08.824Z,38.30
2023-03-21T18:39:38.068Z,37.20
2023-03-21T18:42:07.818Z,37.10
2023-03-21T18:44:45.789Z,39.30
2023-03-21T18:47:14.427Z,37.50
2023-03-21T18:50:13.132Z,41.20
2023-03-21T18:52:32.088Z,41.00
2023-03-21T18:55:01.257Z,42.00
2023-03-21T18:57:39.027Z,39.10
2023-03-21T19:00:13.179Z,43.30
2023-03-21T19:02:46.892Z,41.50
2023-03-21T19:05:17.352Z,38.70
2023-03-21T19:07:46.620Z,37.10
2023-03-21T19:10:18.647Z,34.30
2023-03-21T19:12:52.703Z,34.60
2023-03-21T19:15:21.898Z,36.00
2023-03-21T19:18:33.992Z,37.70
2023-03-21T19:20:46.093Z,42.20
2023-03-21T19:23:17.755Z,40.50
2023-03-21T19:25:47.042Z,40.40
2023-03-21T19:28:17.338Z,38.60
2023-03-21T19:30:50.033Z,39.30
2023-03-21T19:33:24.598Z,43.00
2023-03-21T19:36:10.755Z,43.30
2023-03-21T19:38:40.968Z,39.90
2023-03-21T19:41:09.109Z,41.10
2023-03-21T19:43:40.021Z,40.60
2023-03-21T19:46:09.111Z,42.60
2023-03-21T19:48:38.898Z,41.60
2023-03-21T19:51:26.942Z,47.30
2023-03-21T19:53:56.039Z,42.00
2023-03-21T19:56:27.030Z,39.90
2023-03-21T19:58:56.099Z,43.90
2023-03-21T20:01:24.939Z,44.10
2023-03-21T20:03:56.496Z,46.80
2023-03-21T20:06:26.820Z,50.50
2023-03-21T20:11:47.475Z,52.90
2023-03-21T20:14:17.126Z,48.50
2023-03-21T20:16:45.628Z,53.70
2023-03-21T20:19:16.179Z,54.90
2023-03-21T20:21:52.918Z,54.10
2023-03-21T20:26:57.348Z,57.00
2023-03-21T20:32:14.301Z,58.30
2023-03-21T20:34:44.430Z,63.00
2023-03-21T20:37:13.846Z,57.70
2023-03-21T20:39:42.602Z,58.40
2023-03-21T20:42:10.709Z,58.10
2023-03-21T20:44:57.233Z,57.20
2023-03-21T20:47:28.154Z,54.50
2023-03-21T20:50:00.324Z,52.70
2023-03-21T20:55:18.767Z,47.60
2023-03-21T20:57:48.681Z,52.30
2023-03-21T21:00:17.868Z,52.50
2023-03-21T21:02:50.507Z,43.90
2023-03-21T21:05:35.721Z,44.40
2023-03-21T21:10:52.415Z,43.00
2023-03-21T21:13:23.794Z,39.40
2023-03-21T21:15:55.656Z,35.80
2023-03-21T21:18:29.144Z,34.80
2023-03-21T21:20:58.808Z,30.40
2023-03-21T21:23:29.421Z,29.80
2023-03-21T21:25:58.099Z,29.30
2023-03-21T21:28:29.017Z,30.60
2023-03-21T21:31:01.012Z,29.90
2023-03-21T21:33:30.334Z,27.90
2023-03-21T21:36:03.809Z,28.80
2023-03-21T21:38:34.802Z,28.50
2023-03-21T21:41:03.060Z,25.80
2023-03-21T21:43:32.322Z,28.00
2023-03-21T21:46:00.569Z,28.00
2023-03-21T21:48:30.492Z,25.40
2023-03-21T21:50:59.198Z,24.90
2023-03-21T21:53:28.420Z,24.50
2023-03-21T21:55:56.441Z,27.90
2023-03-21T21:58:26.038Z,26.70
2023-03-21T22:00:54.454Z,28.90
2023-03-21T22:03:23.326Z,30.00
2023-03-21T22:05:52.481Z,29.90
2023-03-21T22:08:21.382Z,32.80
2023-03-21T22:10:50.670Z,29.90
2023-03-21T22:13:18.851Z,30.60
2023-03-21T22:15:47.123Z,32.60
2023-03-21T22:18:15.759Z,29.80
2023-03-21T22:20:44.152Z,32.80
2023-03-21T22:23:12.206Z,28.70
2023-03-21T22:25:40.702Z,32.20
2023-03-21T22:28:08.712Z,31.00
2023-03-21T22:30:37.858Z,34.20
2023-03-21T22:35:11.706Z,35.90
2023-03-21T22:37:40.893Z,32.00
2023-03-21T22:40:10.218Z,30.30
2023-03-21T22:42:39.740Z,35.10
2023-03-21T22:45:08.385Z,35.50
2023-03-21T22:47:35.891Z,34.50
2023-03-21T22:50:03.993Z,35.00
2023-03-21T22:52:31.011Z,33.10
2023-03-21T22:54:57.853Z,30.40
2023-03-21T22:57:24.794Z,30.10
2023-03-21T22:59:51.735Z,31.00
2023-03-21T23:02:18.506Z,29.20
2023-03-21T23:04:45.160Z,31.50
2023-03-21T23:07:11.932Z,28.40
2023-03-21T23:09:40.026Z,34.60
2023-03-21T23:12:06.907Z,27.60
2023-03-21T23:14:36.069Z,31.20
2023-03-21T23:17:03.451Z,29.30
2023-03-21T23:19:31.613Z,35.20
2023-03-21T23:21:58.586Z,29.40
2023-03-21T23:24:26.664Z,30.70
2023-03-21T23:26:53.268Z,29.90
2023-03-21T23:29:21.078Z,29.80
2023-03-21T23:31:48.296Z,29.50
2023-03-21T23:34:15.172Z,32.80
2023-03-21T23:36:42.713Z,26.40
2023-03-21T23:39:09.379Z,32.20
2023-03-21T23:41:36.108Z,29.40
2023-03-21T23:44:02.671Z,31.90
2023-03-21T23:46:34.043Z,37.40
2023-03-21T23:49:01.675Z,34.30
2023-03-21T23:51:28.477Z,40.10
2023-03-21T23:53:55.977Z,34.90
2023-03-21T23:56:24.119Z,33.60
2023-03-21T23:58:56.464Z,31.70
